sensor_id;sensor_type;location;lat;lon;timestamp;P1;durP1;ratioP1;P2;durP2;ratioP2
74412;SDS011;62848;55.798;37.608;2022-10-26T00:01:08;19.55;;;7.50;;
74412;SDS011;62848;55.798;37.608;2022-10-26T00:03:37;17.60;;;6.90;;
74412;SDS011;62848;55.798;37.608;2022-10-26T00:06:08;13.43;;;7.50;;
74412;SDS011;62848;55.798;37.608;2022-10-26T00:08:39;18.08;;;7.38;;
74412;SDS011;62848;55.798;37.608;2022-10-26T00:11:06;15.60;;;6.30;;
74412;SDS011;62848;55.798;37.608;2022-10-26T00:13:34;15.32;;;7.60;;
74412;SDS011;62848;55.798;37.608;2022-10-26T00:16:06;15.05;;;6.78;;
74412;SDS011;62848;55.798;37.608;2022-10-26T00:18:34;16.33;;;6.97;;
74412;SDS011;62848;55.798;37.608;2022-10-26T00:21:04;14.95;;;6.45;;
74412;SDS011;62848;55.798;37.608;2022-10-26T00:23:32;20.58;;;7.95;;
74412;SDS011;62848;55.798;37.608;2022-10-26T00:25:58;16.60;;;7.40;;
74412;SDS011;62848;55.798;37.608;2022-10-26T00:28:25;14.43;;;7.20;;
74412;SDS011;62848;55.798;37.608;2022-10-26T00:30:52;17.08;;;7.13;;
74412;SDS011;62848;55.798;37.608;2022-10-26T00:33:18;19.33;;;8.02;;
74412;SDS011;62848;55.798;37.608;2022-10-26T00:35:48;15.90;;;7.80;;
74412;SDS011;62848;55.798;37.608;2022-10-26T00:38:18;19.58;;;7.47;;
74412;SDS011;62848;55.798;37.608;2022-10-26T00:40:45;12.45;;;6.75;;
74412;SDS011;62848;55.798;37.608;2022-10-26T00:43:15;14.23;;;6.50;;
74412;SDS011;62848;55.798;37.608;2022-10-26T00:45:59;13.20;;;6.80;;
74412;SDS011;62848;55.798;37.608;2022-10-26T00:48:29;10.65;;;5.85;;
74412;SDS011;62848;55.798;37.608;2022-10-26T00:51:00;15.18;;;6.50;;
74412;SDS011;62848;55.798;37.608;2022-10-26T00:53:31;15.30;;;6.35;;
74412;SDS011;62848;55.798;37.608;2022-10-26T00:55:58;12.40;;;5.50;;
74412;SDS011;62848;55.798;37.608;2022-10-26T00:58:25;15.27;;;6.40;;
74412;SDS011;62848;55.798;37.608;2022-10-26T01:00:51;13.00;;;5.80;;
74412;SDS011;62848;55.798;37.608;2022-10-26T01:03:18;14.93;;;6.45;;
74412;SDS011;62848;55.798;37.608;2022-10-26T01:05:46;14.40;;;6.30;;
74412;SDS011;62848;55.798;37.608;2022-10-26T01:08:14;15.02;;;5.95;;
74412;SDS011;62848;55.798;37.608;2022-10-26T01:10:42;13.93;;;5.97;;
74412;SDS011;62848;55.798;37.608;2022-10-26T01:13:08;14.43;;;6.35;;
74412;SDS011;62848;55.798;37.608;2022-10-26T01:18:12;11.50;;;6.10;;
74412;SDS011;62848;55.798;37.608;2022-10-26T01:32:17;13.38;;;6.10;;
74412;SDS011;62848;55.798;37.608;2022-10-26T01:35:29;11.43;;;5.07;;
74412;SDS011;62848;55.798;37.608;2022-10-26T01:38:15;19.33;;;6.18;;
74412;SDS011;62848;55.798;37.608;2022-10-26T01:44:05;15.70;;;5.95;;
74412;SDS011;62848;55.798;37.608;2022-10-26T01:46:40;17.08;;;6.13;;
74412;SDS011;62848;55.798;37.608;2022-10-26T01:49:10;13.73;;;6.35;;
74412;SDS011;62848;55.798;37.608;2022-10-26T01:51:40;16.58;;;6.20;;
74412;SDS011;62848;55.798;37.608;2022-10-26T01:54:08;14.60;;;6.35;;
74412;SDS011;62848;55.798;37.608;2022-10-26T01:56:35;17.55;;;6.65;;
74412;SDS011;62848;55.798;37.608;2022-10-26T02:02:18;14.38;;;6.75;;
74412;SDS011;62848;55.798;37.608;2022-10-26T02:15:37;14.68;;;5.95;;
74412;SDS011;62848;55.798;37.608;2022-10-26T02:20:49;11.60;;;5.80;;
74412;SDS011;62848;55.798;37.608;2022-10-26T02:23:19;13.00;;;5.90;;
74412;SDS011;62848;55.798;37.608;2022-10-26T02:25:49;13.30;;;6.17;;
74412;SDS011;62848;55.798;37.608;2022-10-26T02:28:21;12.02;;;5.63;;
74412;SDS011;62848;55.798;37.608;2022-10-26T02:30:59;10.95;;;6.60;;
74412;SDS011;62848;55.798;37.608;2022-10-26T02:33:30;13.00;;;6.32;;
74412;SDS011;62848;55.798;37.608;2022-10-26T02:36:00;15.32;;;6.65;;
74412;SDS011;62848;55.798;37.608;2022-10-26T02:38:29;13.90;;;5.82;;
74412;SDS011;62848;55.798;37.608;2022-10-26T02:40:57;14.15;;;5.90;;
74412;SDS011;62848;55.798;37.608;2022-10-26T02:43:25;11.98;;;6.15;;
74412;SDS011;62848;55.798;37.608;2022-10-26T02:46:01;12.95;;;6.00;;
74412;SDS011;62848;55.798;37.608;2022-10-26T02:48:33;12.30;;;6.15;;
74412;SDS011;62848;55.798;37.608;2022-10-26T02:51:06;18.40;;;6.28;;
74412;SDS011;62848;55.798;37.608;2022-10-26T02:53:50;16.88;;;5.85;;
74412;SDS011;62848;55.798;37.608;2022-10-26T02:56:25;13.55;;;5.70;;
74412;SDS011;62848;55.798;37.608;2022-10-26T02:59:04;10.60;;;5.80;;
74412;SDS011;62848;55.798;37.608;2022-10-26T03:01:35;9.02;;;5.60;;
74412;SDS011;62848;55.798;37.608;2022-10-26T03:04:02;12.38;;;5.82;;
74412;SDS011;62848;55.798;37.608;2022-10-26T03:06:29;14.48;;;6.15;;
74412;SDS011;62848;55.798;37.608;2022-10-26T03:08:55;12.90;;;5.97;;
74412;SDS011;62848;55.798;37.608;2022-10-26T03:11:21;10.20;;;5.60;;
74412;SDS011;62848;55.798;37.608;2022-10-26T03:13:47;12.45;;;5.82;;
74412;SDS011;62848;55.798;37.608;2022-10-26T03:16:14;15.18;;;6.25;;
74412;SDS011;62848;55.798;37.608;2022-10-26T03:18:40;10.05;;;5.80;;
74412;SDS011;62848;55.798;37.608;2022-10-26T03:21:06;13.35;;;6.03;;
74412;SDS011;62848;55.798;37.608;2022-10-26T03:23:33;13.30;;;6.55;;
74412;SDS011;62848;55.798;37.608;2022-10-26T03:25:59;13.77;;;6.00;;
74412;SDS011;62848;55.798;37.608;2022-10-26T03:28:25;11.70;;;6.20;;
74412;SDS011;62848;55.798;37.608;2022-10-26T03:30:52;10.52;;;5.90;;
74412;SDS011;62848;55.798;37.608;2022-10-26T03:33:18;11.88;;;6.10;;
74412;SDS011;62848;55.798;37.608;2022-10-26T03:35:44;10.68;;;5.43;;
74412;SDS011;62848;55.798;37.608;2022-10-26T03:38:11;14.52;;;6.32;;
74412;SDS011;62848;55.798;37.608;2022-10-26T03:40:37;13.43;;;6.22;;
74412;SDS011;62848;55.798;37.608;2022-10-26T03:43:04;14.68;;;6.05;;
74412;SDS011;62848;55.798;37.608;2022-10-26T03:45:31;15.70;;;6.32;;
74412;SDS011;62848;55.798;37.608;2022-10-26T03:47:57;11.02;;;5.78;;
74412;SDS011;62848;55.798;37.608;2022-10-26T03:50:23;16.77;;;6.43;;
74412;SDS011;62848;55.798;37.608;2022-10-26T03:52:49;11.43;;;6.35;;
74412;SDS011;62848;55.798;37.608;2022-10-26T03:55:16;12.50;;;6.13;;
74412;SDS011;62848;55.798;37.608;2022-10-26T03:57:44;10.88;;;6.13;;
74412;SDS011;62848;55.798;37.608;2022-10-26T04:00:11;11.55;;;6.05;;
74412;SDS011;62848;55.798;37.608;2022-10-26T04:02:39;12.30;;;6.38;;
74412;SDS011;62848;55.798;37.608;2022-10-26T04:05:06;10.90;;;5.78;;
74412;SDS011;62848;55.798;37.608;2022-10-26T04:07:33;12.90;;;5.80;;
74412;SDS011;62848;55.798;37.608;2022-10-26T04:09:59;18.52;;;5.85;;
74412;SDS011;62848;55.798;37.608;2022-10-26T04:12:26;9.02;;;5.32;;
74412;SDS011;62848;55.798;37.608;2022-10-26T04:14:52;11.95;;;5.35;;
74412;SDS011;62848;55.798;37.608;2022-10-26T04:17:18;10.80;;;5.72;;
74412;SDS011;62848;55.798;37.608;2022-10-26T04:19:44;12.57;;;6.05;;
74412;SDS011;62848;55.798;37.608;2022-10-26T04:22:11;13.88;;;5.55;;
74412;SDS011;62848;55.798;37.608;2022-10-26T04:24:37;17.70;;;6.18;;
74412;SDS011;62848;55.798;37.608;2022-10-26T04:27:03;10.10;;;6.22;;
74412;SDS011;62848;55.798;37.608;2022-10-26T04:29:30;15.60;;;6.30;;
74412;SDS011;62848;55.798;37.608;2022-10-26T04:31:56;14.60;;;6.32;;
74412;SDS011;62848;55.798;37.608;2022-10-26T04:34:22;18.33;;;6.13;;
74412;SDS011;62848;55.798;37.608;2022-10-26T04:36:48;11.50;;;6.60;;
74412;SDS011;62848;55.798;37.608;2022-10-26T04:39:15;12.73;;;6.53;;
74412;SDS011;62848;55.798;37.608;2022-10-26T04:41:41;13.98;;;5.93;;
74412;SDS011;62848;55.798;37.608;2022-10-26T04:44:07;13.48;;;6.43;;
74412;SDS011;62848;55.798;37.608;2022-10-26T04:46:34;9.88;;;5.40;;
74412;SDS011;62848;55.798;37.608;2022-10-26T04:49:00;17.30;;;6.22;;
74412;SDS011;62848;55.798;37.608;2022-10-26T04:51:26;11.57;;;6.20;;
74412;SDS011;62848;55.798;37.608;2022-10-26T04:53:53;16.65;;;6.88;;
74412;SDS011;62848;55.798;37.608;2022-10-26T04:56:20;15.35;;;6.68;;
74412;SDS011;62848;55.798;37.608;2022-10-26T04:58:46;12.48;;;6.35;;
74412;SDS011;62848;55.798;37.608;2022-10-26T05:01:13;15.85;;;6.95;;
74412;SDS011;62848;55.798;37.608;2022-10-26T05:03:39;14.00;;;6.40;;
74412;SDS011;62848;55.798;37.608;2022-10-26T05:06:05;15.27;;;6.25;;
74412;SDS011;62848;55.798;37.608;2022-10-26T05:08:31;12.48;;;6.30;;
74412;SDS011;62848;55.798;37.608;2022-10-26T05:10:58;14.63;;;7.07;;
74412;SDS011;62848;55.798;37.608;2022-10-26T05:13:24;13.43;;;6.68;;
74412;SDS011;62848;55.798;37.608;2022-10-26T05:15:53;12.73;;;6.13;;
74412;SDS011;62848;55.798;37.608;2022-10-26T05:18:19;9.63;;;5.95;;
74412;SDS011;62848;55.798;37.608;2022-10-26T05:20:46;12.52;;;6.72;;
74412;SDS011;62848;55.798;37.608;2022-10-26T05:23:14;15.25;;;6.10;;
74412;SDS011;62848;55.798;37.608;2022-10-26T05:25:42;15.40;;;6.40;;
74412;SDS011;62848;55.798;37.608;2022-10-26T05:28:10;15.07;;;6.10;;
74412;SDS011;62848;55.798;37.608;2022-10-26T05:30:37;18.23;;;6.07;;
74412;SDS011;62848;55.798;37.608;2022-10-26T05:33:04;11.32;;;6.38;;
74412;SDS011;62848;55.798;37.608;2022-10-26T05:35:32;13.80;;;6.47;;
74412;SDS011;62848;55.798;37.608;2022-10-26T05:37:58;14.82;;;5.90;;
74412;SDS011;62848;55.798;37.608;2022-10-26T05:40:30;11.43;;;6.10;;
74412;SDS011;62848;55.798;37.608;2022-10-26T05:43:00;13.98;;;6.47;;
74412;SDS011;62848;55.798;37.608;2022-10-26T05:45:26;11.73;;;6.95;;
74412;SDS011;62848;55.798;37.608;2022-10-26T05:47:53;18.38;;;6.35;;
74412;SDS011;62848;55.798;37.608;2022-10-26T05:50:19;14.30;;;6.65;;
74412;SDS011;62848;55.798;37.608;2022-10-26T05:52:46;15.15;;;6.45;;
74412;SDS011;62848;55.798;37.608;2022-10-26T05:55:17;14.52;;;6.90;;
74412;SDS011;62848;55.798;37.608;2022-10-26T05:57:43;17.48;;;6.90;;
74412;SDS011;62848;55.798;37.608;2022-10-26T06:00:17;15.32;;;7.20;;
74412;SDS011;62848;55.798;37.608;2022-10-26T06:02:53;16.17;;;6.75;;
74412;SDS011;62848;55.798;37.608;2022-10-26T06:05:54;12.18;;;6.40;;
74412;SDS011;62848;55.798;37.608;2022-10-26T06:08:21;15.70;;;6.40;;
74412;SDS011;62848;55.798;37.608;2022-10-26T06:10:49;25.10;;;6.63;;
74412;SDS011;62848;55.798;37.608;2022-10-26T06:13:17;20.52;;;7.57;;
74412;SDS011;62848;55.798;37.608;2022-10-26T06:24:43;11.73;;;5.97;;
74412;SDS011;62848;55.798;37.608;2022-10-26T06:33:38;12.10;;;5.95;;
74412;SDS011;62848;55.798;37.608;2022-10-26T06:36:29;17.13;;;6.88;;
74412;SDS011;62848;55.798;37.608;2022-10-26T06:39:03;16.52;;;6.07;;
74412;SDS011;62848;55.798;37.608;2022-10-26T06:41:35;17.00;;;5.88;;
74412;SDS011;62848;55.798;37.608;2022-10-26T06:44:03;17.27;;;6.75;;
74412;SDS011;62848;55.798;37.608;2022-10-26T06:49:20;14.05;;;6.93;;
74412;SDS011;62848;55.798;37.608;2022-10-26T06:51:57;11.85;;;6.15;;
74412;SDS011;62848;55.798;37.608;2022-10-26T06:54:43;17.00;;;6.30;;
74412;SDS011;62848;55.798;37.608;2022-10-26T06:57:22;13.68;;;6.57;;
74412;SDS011;62848;55.798;37.608;2022-10-26T06:59:52;12.80;;;5.63;;
74412;SDS011;62848;55.798;37.608;2022-10-26T07:02:22;12.73;;;6.32;;
74412;SDS011;62848;55.798;37.608;2022-10-26T07:04:48;16.45;;;6.10;;
74412;SDS011;62848;55.798;37.608;2022-10-26T07:07:17;16.13;;;6.65;;
74412;SDS011;62848;55.798;37.608;2022-10-26T07:09:45;18.38;;;6.40;;
74412;SDS011;62848;55.798;37.608;2022-10-26T07:12:11;20.20;;;6.75;;
74412;SDS011;62848;55.798;37.608;2022-10-26T07:14:38;17.60;;;5.82;;
74412;SDS011;62848;55.798;37.608;2022-10-26T07:17:04;12.30;;;6.25;;
74412;SDS011;62848;55.798;37.608;2022-10-26T07:19:31;15.98;;;6.25;;
74412;SDS011;62848;55.798;37.608;2022-10-26T07:21:57;13.38;;;5.43;;
74412;SDS011;62848;55.798;37.608;2022-10-26T07:24:24;16.67;;;5.57;;
74412;SDS011;62848;55.798;37.608;2022-10-26T07:26:52;11.38;;;5.43;;
74412;SDS011;62848;55.798;37.608;2022-10-26T07:29:20;15.57;;;6.30;;
74412;SDS011;62848;55.798;37.608;2022-10-26T07:31:47;15.40;;;6.00;;
74412;SDS011;62848;55.798;37.608;2022-10-26T07:34:13;11.88;;;5.78;;
74412;SDS011;62848;55.798;37.608;2022-10-26T07:36:39;13.50;;;5.82;;
74412;SDS011;62848;55.798;37.608;2022-10-26T07:39:06;14.98;;;5.13;;
74412;SDS011;62848;55.798;37.608;2022-10-26T07:41:33;13.65;;;5.78;;
74412;SDS011;62848;55.798;37.608;2022-10-26T07:44:00;19.40;;;5.35;;
74412;SDS011;62848;55.798;37.608;2022-10-26T07:46:26;14.60;;;5.47;;
74412;SDS011;62848;55.798;37.608;2022-10-26T07:48:52;13.98;;;5.80;;
74412;SDS011;62848;55.798;37.608;2022-10-26T07:51:19;12.38;;;5.88;;
74412;SDS011;62848;55.798;37.608;2022-10-26T07:53:45;12.30;;;5.60;;
74412;SDS011;62848;55.798;37.608;2022-10-26T07:56:12;13.52;;;6.07;;
74412;SDS011;62848;55.798;37.608;2022-10-26T07:58:38;17.10;;;5.70;;
74412;SDS011;62848;55.798;37.608;2022-10-26T08:01:09;11.93;;;5.82;;
74412;SDS011;62848;55.798;37.608;2022-10-26T08:03:37;10.48;;;5.50;;
74412;SDS011;62848;55.798;37.608;2022-10-26T08:06:03;13.55;;;5.15;;
74412;SDS011;62848;55.798;37.608;2022-10-26T08:08:31;9.35;;;5.20;;
74412;SDS011;62848;55.798;37.608;2022-10-26T08:10:58;13.63;;;5.85;;
74412;SDS011;62848;55.798;37.608;2022-10-26T08:13:25;19.25;;;5.53;;
74412;SDS011;62848;55.798;37.608;2022-10-26T08:16:01;10.15;;;5.68;;
74412;SDS011;62848;55.798;37.608;2022-10-26T08:18:29;9.68;;;6.13;;
74412;SDS011;62848;55.798;37.608;2022-10-26T08:20:59;14.90;;;5.82;;
74412;SDS011;62848;55.798;37.608;2022-10-26T08:23:30;12.77;;;5.88;;
74412;SDS011;62848;55.798;37.608;2022-10-26T08:25:58;17.27;;;5.70;;
74412;SDS011;62848;55.798;37.608;2022-10-26T08:28:26;10.32;;;5.30;;
74412;SDS011;62848;55.798;37.608;2022-10-26T08:30:54;18.40;;;5.93;;
74412;SDS011;62848;55.798;37.608;2022-10-26T08:33:21;11.43;;;6.30;;
74412;SDS011;62848;55.798;37.608;2022-10-26T08:35:48;12.52;;;5.82;;
74412;SDS011;62848;55.798;37.608;2022-10-26T08:38:24;12.40;;;5.72;;
74412;SDS011;62848;55.798;37.608;2022-10-26T08:40:51;12.40;;;5.53;;
74412;SDS011;62848;55.798;37.608;2022-10-26T08:45:58;15.25;;;5.63;;
74412;SDS011;62848;55.798;37.608;2022-10-26T08:48:37;10.40;;;5.57;;
74412;SDS011;62848;55.798;37.608;2022-10-26T08:51:19;16.73;;;5.57;;
74412;SDS011;62848;55.798;37.608;2022-10-26T08:53:53;11.52;;;6.22;;
74412;SDS011;62848;55.798;37.608;2022-10-26T08:56:28;16.45;;;5.75;;
74412;SDS011;62848;55.798;37.608;2022-10-26T08:59:09;14.88;;;5.93;;
74412;SDS011;62848;55.798;37.608;2022-10-26T09:01:49;17.27;;;6.20;;
74412;SDS011;62848;55.798;37.608;2022-10-26T09:04:15;12.75;;;6.40;;
74412;SDS011;62848;55.798;37.608;2022-10-26T09:09:47;19.45;;;6.85;;
74412;SDS011;62848;55.798;37.608;2022-10-26T09:26:01;13.48;;;6.38;;
74412;SDS011;62848;55.798;37.608;2022-10-26T09:28:32;12.43;;;6.35;;
74412;SDS011;62848;55.798;37.608;2022-10-26T09:31:02;17.60;;;6.72;;
74412;SDS011;62848;55.798;37.608;2022-10-26T09:33:29;15.60;;;6.53;;
74412;SDS011;62848;55.798;37.608;2022-10-26T09:36:04;13.90;;;7.47;;
74412;SDS011;62848;55.798;37.608;2022-10-26T09:41:45;14.60;;;6.72;;
74412;SDS011;62848;55.798;37.608;2022-10-26T09:52:16;15.02;;;7.03;;
74412;SDS011;62848;55.798;37.608;2022-10-26T09:54:43;18.27;;;7.20;;
74412;SDS011;62848;55.798;37.608;2022-10-26T09:57:11;14.75;;;6.60;;
74412;SDS011;62848;55.798;37.608;2022-10-26T09:59:40;19.88;;;6.35;;
74412;SDS011;62848;55.798;37.608;2022-10-26T10:05:01;17.50;;;6.35;;
74412;SDS011;62848;55.798;37.608;2022-10-26T10:07:45;15.75;;;6.55;;
74412;SDS011;62848;55.798;37.608;2022-10-26T10:10:15;12.20;;;6.18;;
74412;SDS011;62848;55.798;37.608;2022-10-26T10:12:47;13.77;;;6.45;;
74412;SDS011;62848;55.798;37.608;2022-10-26T10:17:51;15.23;;;6.57;;
74412;SDS011;62848;55.798;37.608;2022-10-26T10:20:30;16.27;;;5.55;;
74412;SDS011;62848;55.798;37.608;2022-10-26T10:22:58;10.93;;;5.47;;
74412;SDS011;62848;55.798;37.608;2022-10-26T10:25:36;10.95;;;5.00;;
74412;SDS011;62848;55.798;37.608;2022-10-26T10:28:20;14.85;;;5.63;;
74412;SDS011;62848;55.798;37.608;2022-10-26T10:30:54;10.48;;;5.57;;
74412;SDS011;62848;55.798;37.608;2022-10-26T10:33:38;11.82;;;5.43;;
74412;SDS011;62848;55.798;37.608;2022-10-26T10:36:06;12.20;;;6.13;;
74412;SDS011;62848;55.798;37.608;2022-10-26T10:38:38;14.18;;;5.63;;
74412;SDS011;62848;55.798;37.608;2022-10-26T10:41:13;9.15;;;5.50;;
74412;SDS011;62848;55.798;37.608;2022-10-26T10:46:29;12.20;;;5.40;;
74412;SDS011;62848;55.798;37.608;2022-10-26T10:49:02;9.88;;;4.75;;
74412;SDS011;62848;55.798;37.608;2022-10-26T10:51:38;10.90;;;5.10;;
74412;SDS011;62848;55.798;37.608;2022-10-26T10:54:06;18.30;;;5.78;;
74412;SDS011;62848;55.798;37.608;2022-10-26T10:56:50;10.23;;;5.05;;
74412;SDS011;62848;55.798;37.608;2022-10-26T10:59:41;9.93;;;5.25;;
74412;SDS011;62848;55.798;37.608;2022-10-26T11:07:44;31.23;;;16.02;;
74412;SDS011;62848;55.798;37.608;2022-10-26T11:10:28;23.50;;;14.48;;
74412;SDS011;62848;55.798;37.608;2022-10-26T11:12:59;21.75;;;10.98;;
74412;SDS011;62848;55.798;37.608;2022-10-26T11:15:32;16.52;;;7.30;;
74412;SDS011;62848;55.798;37.608;2022-10-26T11:18:44;14.00;;;5.55;;
74412;SDS011;62848;55.798;37.608;2022-10-26T11:20:53;8.85;;;5.35;;
74412;SDS011;62848;55.798;37.608;2022-10-26T11:23:47;22.45;;;5.45;;
74412;SDS011;62848;55.798;37.608;2022-10-26T11:32:14;10.18;;;5.13;;
74412;SDS011;62848;55.798;37.608;2022-10-26T11:37:28;17.55;;;5.50;;
74412;SDS011;62848;55.798;37.608;2022-10-26T11:43:13;14.30;;;5.97;;
74412;SDS011;62848;55.798;37.608;2022-10-26T11:46:01;10.25;;;5.05;;
74412;SDS011;62848;55.798;37.608;2022-10-26T11:48:53;11.65;;;4.90;;
74412;SDS011;62848;55.798;37.608;2022-10-26T11:54:06;14.45;;;4.65;;
74412;SDS011;62848;55.798;37.608;2022-10-26T11:56:53;11.23;;;5.80;;
74412;SDS011;62848;55.798;37.608;2022-10-26T11:59:23;11.60;;;5.70;;
74412;SDS011;62848;55.798;37.608;2022-10-26T12:02:02;14.43;;;5.88;;
74412;SDS011;62848;55.798;37.608;2022-10-26T12:04:41;18.42;;;6.25;;
74412;SDS011;62848;55.798;37.608;2022-10-26T12:07:15;12.65;;;5.78;;
74412;SDS011;62848;55.798;37.608;2022-10-26T12:09:48;14.05;;;6.25;;
74412;SDS011;62848;55.798;37.608;2022-10-26T12:15:23;16.95;;;5.70;;
74412;SDS011;62848;55.798;37.608;2022-10-26T12:17:54;16.48;;;6.28;;
74412;SDS011;62848;55.798;37.608;2022-10-26T12:23:20;13.23;;;6.38;;
74412;SDS011;62848;55.798;37.608;2022-10-26T12:25:48;15.35;;;6.50;;
74412;SDS011;62848;55.798;37.608;2022-10-26T12:33:57;11.15;;;5.63;;
74412;SDS011;62848;55.798;37.608;2022-10-26T12:39:37;12.93;;;6.20;;
74412;SDS011;62848;55.798;37.608;2022-10-26T12:44:39;10.60;;;5.07;;
74412;SDS011;62848;55.798;37.608;2022-10-26T13:01:07;17.63;;;6.03;;
74412;SDS011;62848;55.798;37.608;2022-10-26T13:03:49;10.85;;;5.32;;
74412;SDS011;62848;55.798;37.608;2022-10-26T13:09:29;9.55;;;4.43;;
74412;SDS011;62848;55.798;37.608;2022-10-26T13:11:57;12.55;;;5.00;;
74412;SDS011;62848;55.798;37.608;2022-10-26T13:14:31;16.33;;;4.28;;
74412;SDS011;62848;55.798;37.608;2022-10-26T13:17:02;11.32;;;4.60;;
74412;SDS011;62848;55.798;37.608;2022-10-26T13:19:31;11.07;;;4.30;;
74412;SDS011;62848;55.798;37.608;2022-10-26T13:22:00;8.55;;;3.97;;
74412;SDS011;62848;55.798;37.608;2022-10-26T13:24:28;10.98;;;4.40;;
74412;SDS011;62848;55.798;37.608;2022-10-26T13:29:29;10.98;;;4.75;;
74412;SDS011;62848;55.798;37.608;2022-10-26T13:31:55;9.70;;;3.83;;
74412;SDS011;62848;55.798;37.608;2022-10-26T13:34:24;10.45;;;4.25;;
74412;SDS011;62848;55.798;37.608;2022-10-26T13:39:21;9.43;;;4.10;;
74412;SDS011;62848;55.798;37.608;2022-10-26T13:41:52;10.60;;;4.80;;
74412;SDS011;62848;55.798;37.608;2022-10-26T13:44:24;11.20;;;5.05;;
74412;SDS011;62848;55.798;37.608;2022-10-26T13:47:02;11.20;;;4.25;;
74412;SDS011;62848;55.798;37.608;2022-10-26T13:52:03;10.13;;;4.80;;
74412;SDS011;62848;55.798;37.608;2022-10-26T13:54:38;9.73;;;4.80;;
74412;SDS011;62848;55.798;37.608;2022-10-26T13:57:15;13.10;;;4.32;;
74412;SDS011;62848;55.798;37.608;2022-10-26T14:00:07;16.50;;;5.15;;
74412;SDS011;62848;55.798;37.608;2022-10-26T14:02:40;13.05;;;5.20;;
74412;SDS011;62848;55.798;37.608;2022-10-26T14:05:08;12.18;;;4.78;;
74412;SDS011;62848;55.798;37.608;2022-10-26T14:12:53;17.48;;;5.15;;
74412;SDS011;62848;55.798;37.608;2022-10-26T14:15:27;17.75;;;5.45;;
74412;SDS011;62848;55.798;37.608;2022-10-26T14:17:56;11.43;;;5.40;;
74412;SDS011;62848;55.798;37.608;2022-10-26T14:20:25;11.18;;;5.72;;
74412;SDS011;62848;55.798;37.608;2022-10-26T14:22:53;13.27;;;5.40;;
74412;SDS011;62848;55.798;37.608;2022-10-26T14:25:21;10.73;;;5.30;;
74412;SDS011;62848;55.798;37.608;2022-10-26T14:27:51;14.13;;;5.43;;
74412;SDS011;62848;55.798;37.608;2022-10-26T14:30:27;15.95;;;5.53;;
74412;SDS011;62848;55.798;37.608;2022-10-26T14:32:55;13.23;;;5.65;;
74412;SDS011;62848;55.798;37.608;2022-10-26T14:35:23;16.05;;;6.20;;
74412;SDS011;62848;55.798;37.608;2022-10-26T14:37:58;10.63;;;5.20;;
74412;SDS011;62848;55.798;37.608;2022-10-26T14:40:26;12.68;;;5.20;;
74412;SDS011;62848;55.798;37.608;2022-10-26T14:42:56;14.20;;;5.25;;
74412;SDS011;62848;55.798;37.608;2022-10-26T14:45:27;12.82;;;5.72;;
74412;SDS011;62848;55.798;37.608;2022-10-26T14:47:58;12.55;;;5.53;;
74412;SDS011;62848;55.798;37.608;2022-10-26T14:50:26;14.73;;;5.80;;
74412;SDS011;62848;55.798;37.608;2022-10-26T14:53:03;15.98;;;6.05;;
74412;SDS011;62848;55.798;37.608;2022-10-26T14:55:50;13.93;;;5.97;;
74412;SDS011;62848;55.798;37.608;2022-10-26T14:58:19;14.07;;;6.05;;
74412;SDS011;62848;55.798;37.608;2022-10-26T15:03:54;15.30;;;6.13;;
74412;SDS011;62848;55.798;37.608;2022-10-26T15:09:00;14.15;;;5.70;;
74412;SDS011;62848;55.798;37.608;2022-10-26T15:11:29;16.80;;;6.75;;
74412;SDS011;62848;55.798;37.608;2022-10-26T15:13:57;15.93;;;6.07;;
74412;SDS011;62848;55.798;37.608;2022-10-26T15:16:25;16.05;;;6.20;;
74412;SDS011;62848;55.798;37.608;2022-10-26T15:18:57;15.68;;;6.10;;
74412;SDS011;62848;55.798;37.608;2022-10-26T15:23:58;14.10;;;6.40;;
74412;SDS011;62848;55.798;37.608;2022-10-26T15:26:26;14.07;;;5.90;;
74412;SDS011;62848;55.798;37.608;2022-10-26T15:28:53;15.02;;;5.65;;
74412;SDS011;62848;55.798;37.608;2022-10-26T15:36:28;10.80;;;5.45;;
74412;SDS011;62848;55.798;37.608;2022-10-26T15:38:56;14.63;;;5.90;;
74412;SDS011;62848;55.798;37.608;2022-10-26T15:41:31;11.43;;;6.03;;
74412;SDS011;62848;55.798;37.608;2022-10-26T15:44:00;14.10;;;5.80;;
74412;SDS011;62848;55.798;37.608;2022-10-26T15:46:33;13.63;;;6.00;;
74412;SDS011;62848;55.798;37.608;2022-10-26T15:49:03;12.53;;;6.00;;
74412;SDS011;62848;55.798;37.608;2022-10-26T15:51:31;16.05;;;6.15;;
74412;SDS011;62848;55.798;37.608;2022-10-26T15:53:58;15.15;;;6.10;;
74412;SDS011;62848;55.798;37.608;2022-10-26T15:56:28;12.40;;;6.35;;
74412;SDS011;62848;55.798;37.608;2022-10-26T15:58:55;12.38;;;6.40;;
74412;SDS011;62848;55.798;37.608;2022-10-26T16:01:23;11.77;;;6.43;;
74412;SDS011;62848;55.798;37.608;2022-10-26T16:03:51;13.77;;;6.00;;
74412;SDS011;62848;55.798;37.608;2022-10-26T16:06:31;11.90;;;6.13;;
74412;SDS011;62848;55.798;37.608;2022-10-26T16:09:00;10.52;;;6.40;;
74412;SDS011;62848;55.798;37.608;2022-10-26T16:11:28;11.93;;;6.57;;
74412;SDS011;62848;55.798;37.608;2022-10-26T16:13:55;11.18;;;6.63;;
74412;SDS011;62848;55.798;37.608;2022-10-26T16:16:22;9.88;;;6.60;;
74412;SDS011;62848;55.798;37.608;2022-10-26T16:18:51;13.98;;;6.30;;
74412;SDS011;62848;55.798;37.608;2022-10-26T16:21:19;11.73;;;5.90;;
74412;SDS011;62848;55.798;37.608;2022-10-26T16:23:48;11.15;;;5.70;;
74412;SDS011;62848;55.798;37.608;2022-10-26T16:26:16;13.45;;;5.55;;
74412;SDS011;62848;55.798;37.608;2022-10-26T16:28:43;18.67;;;6.47;;
74412;SDS011;62848;55.798;37.608;2022-10-26T16:31:11;16.20;;;6.20;;
74412;SDS011;62848;55.798;37.608;2022-10-26T16:33:39;12.90;;;6.00;;
74412;SDS011;62848;55.798;37.608;2022-10-26T16:36:05;12.73;;;5.75;;
74412;SDS011;62848;55.798;37.608;2022-10-26T16:38:33;15.75;;;6.55;;
74412;SDS011;62848;55.798;37.608;2022-10-26T16:41:04;12.25;;;6.03;;
74412;SDS011;62848;55.798;37.608;2022-10-26T16:43:33;14.68;;;5.95;;
74412;SDS011;62848;55.798;37.608;2022-10-26T16:46:04;15.45;;;6.05;;
74412;SDS011;62848;55.798;37.608;2022-10-26T16:48:36;14.15;;;5.95;;
74412;SDS011;62848;55.798;37.608;2022-10-26T16:51:07;12.93;;;6.63;;
74412;SDS011;62848;55.798;37.608;2022-10-26T16:53:47;13.35;;;6.03;;
74412;SDS011;62848;55.798;37.608;2022-10-26T16:56:16;14.05;;;6.70;;
74412;SDS011;62848;55.798;37.608;2022-10-26T16:58:45;11.55;;;5.68;;
74412;SDS011;62848;55.798;37.608;2022-10-26T17:01:12;20.42;;;6.13;;
74412;SDS011;62848;55.798;37.608;2022-10-26T17:06:09;10.18;;;5.93;;
74412;SDS011;62848;55.798;37.608;2022-10-26T17:08:36;10.48;;;6.30;;
74412;SDS011;62848;55.798;37.608;2022-10-26T17:11:04;10.40;;;5.68;;
74412;SDS011;62848;55.798;37.608;2022-10-26T17:13:33;16.90;;;5.95;;
74412;SDS011;62848;55.798;37.608;2022-10-26T17:16:00;12.90;;;6.63;;
74412;SDS011;62848;55.798;37.608;2022-10-26T17:18:32;12.48;;;6.25;;
74412;SDS011;62848;55.798;37.608;2022-10-26T17:20:59;13.68;;;5.53;;
74412;SDS011;62848;55.798;37.608;2022-10-26T17:23:25;12.43;;;5.97;;
74412;SDS011;62848;55.798;37.608;2022-10-26T17:25:52;13.43;;;5.88;;
74412;SDS011;62848;55.798;37.608;2022-10-26T17:28:18;23.98;;;6.40;;
74412;SDS011;62848;55.798;37.608;2022-10-26T17:30:44;14.95;;;6.20;;
74412;SDS011;62848;55.798;37.608;2022-10-26T17:33:11;13.82;;;6.00;;